Otagawa — JD3046 — position and weather

sailwx.info

Track history (hours):
 
Tides and Currents Weather Stations Pressure Air Temp Water Temp Dewpoint Dewpoint Depression Visibility Wind Speed Wind Dir Waves Ship Positions

Otagawa

Last reported at 2014-Nov-27 09:25 UTC. Time now 2014-Nov-27 10:32 UTC.
Position N 35°30' E 139°50'.

Length 70 m; draft 4.6 m.

Type: Ship. MMSI: 431001328.

Date/timePositionNaut miles runAvg speedWind from/ knotsBaromVisibWave heightAir tempDewpointWater temp
2014-Nov-27 09:25N 35°30' E 139°50'0 0.1
2014-Nov-27 08:28N 35°30' E 139°50'0 0.1
2014-Nov-27 04:33N 35°30' E 139°50'1010.1
2014-Nov-27 03:33N 35°21' E 139°45'9 9.0
2014-Nov-27 02:33N 35°12' E 139°47'8 0.2
2014-Nov-25 04:06N 35°06' E 139°40'611.6
2014-Nov-25 03:33N 35°11' E 139°45'1110.8
2014-Nov-25 02:33N 35°21' E 139°42'1111.0
2014-Nov-25 01:33N 35°29' E 139°51'8 4.0
2014-Nov-24 23:30N 35°37' E 139°46'3 3.2
2014-Nov-24 22:32N 35°34' E 139°48'2 1.9
2014-Nov-24 21:33N 35°34' E 139°51'0 0.0
2014-Nov-24 20:30N 35°34' E 139°51'0 0.0
2014-Nov-24 19:30N 35°34' E 139°51'4 1.4
2014-Nov-24 16:32N 35°30' E 139°52'1010.5
2014-Nov-24 15:33N 35°21' E 139°45'10 9.6
2014-Nov-24 14:33N 35°12' E 139°47'  
2014-Nov-21 16:29N 35°05' E 139°45'1010.9
2014-Nov-21 15:33N 35°15' E 139°46'9 9.6
2014-Nov-21 14:33N 35°25' E 139°43'10 9.6
2014-Nov-21 13:30N 35°33' E 139°51'6 5.6
2014-Nov-21 12:29N 35°37' E 139°46'3 1.1
2014-Nov-21 09:24N 35°34' E 139°49'7 8.3
2014-Nov-21 08:33N 35°27' E 139°50'10 9.7
2014-Nov-21 07:34N 35°19' E 139°44'  
2014-Nov-18 09:32N 35°13' E 139°46'1110.8
2014-Nov-18 08:33N 35°23' E 139°42'1010.4
2014-Nov-18 07:33N 35°30' E 139°51'7 2.8
2014-Nov-18 05:10N 35°36' E 139°46'7 6.9
2014-Nov-18 04:13N 35°30' E 139°49'6 9.4
2014-Nov-18 03:33N 35°27' E 139°42'1 1.4
2014-Nov-18 02:33N 35°27' E 139°40'0 0.0
2014-Nov-18 01:33N 35°27' E 139°40'6 5.8
2014-Nov-18 00:33N 35°29' E 139°47'8 7.5
2014-Nov-17 23:28N 35°37' E 139°46'2 2.2
2014-Nov-17 22:30N 35°35' E 139°48'2 0.3
2014-Nov-17 14:33N 35°34' E 139°50'0 0.1
2014-Nov-17 13:33N 35°34' E 139°50'0 0.0
2014-Nov-17 09:27N 35°34' E 139°50'  
Track history (hours):
 
Tides and Currents Weather Stations Pressure Air Temp Water Temp Dewpoint Dewpoint Depression Visibility Wind Speed Wind Dir Waves Ship Positions

Otagawa

Last reported at 2014-Nov-27 09:25 UTC. Time now 2014-Nov-27 10:32 UTC.
Position N 35°30' E 139°50'.

Length 70 m; draft 4.6 m.

Type: Ship. MMSI: 431001328.

Date/timePositionNaut miles runAvg speedWind from/ knotsBaromVisibWave heightAir tempDewpointWater temp
2014-Nov-27 09:25N 35°30' E 139°50'0 0.1
2014-Nov-27 08:28N 35°30' E 139°50'0 0.1
2014-Nov-27 04:33N 35°30' E 139°50'1010.1
2014-Nov-27 03:33N 35°21' E 139°45'9 9.0
2014-Nov-27 02:33N 35°12' E 139°47'8 0.2
2014-Nov-25 04:06N 35°06' E 139°40'611.6
2014-Nov-25 03:33N 35°11' E 139°45'1110.8
2014-Nov-25 02:33N 35°21' E 139°42'1111.0
2014-Nov-25 01:33N 35°29' E 139°51'8 4.0
2014-Nov-24 23:30N 35°37' E 139°46'3 3.2
2014-Nov-24 22:32N 35°34' E 139°48'2 1.9
2014-Nov-24 21:33N 35°34' E 139°51'0 0.0
2014-Nov-24 20:30N 35°34' E 139°51'0 0.0
2014-Nov-24 19:30N 35°34' E 139°51'4 1.4
2014-Nov-24 16:32N 35°30' E 139°52'1010.5
2014-Nov-24 15:33N 35°21' E 139°45'10 9.6
2014-Nov-24 14:33N 35°12' E 139°47'  
2014-Nov-21 16:29N 35°05' E 139°45'1010.9
2014-Nov-21 15:33N 35°15' E 139°46'9 9.6
2014-Nov-21 14:33N 35°25' E 139°43'10 9.6
2014-Nov-21 13:30N 35°33' E 139°51'6 5.6
2014-Nov-21 12:29N 35°37' E 139°46'3 1.1
2014-Nov-21 09:24N 35°34' E 139°49'7 8.3
2014-Nov-21 08:33N 35°27' E 139°50'10 9.7
2014-Nov-21 07:34N 35°19' E 139°44'  
2014-Nov-18 09:32N 35°13' E 139°46'1110.8
2014-Nov-18 08:33N 35°23' E 139°42'1010.4
2014-Nov-18 07:33N 35°30' E 139°51'7 2.8
2014-Nov-18 05:10N 35°36' E 139°46'7 6.9
2014-Nov-18 04:13N 35°30' E 139°49'6 9.4
2014-Nov-18 03:33N 35°27' E 139°42'1 1.4
2014-Nov-18 02:33N 35°27' E 139°40'0 0.0
2014-Nov-18 01:33N 35°27' E 139°40'6 5.8
2014-Nov-18 00:33N 35°29' E 139°47'8 7.5
2014-Nov-17 23:28N 35°37' E 139°46'2 2.2
2014-Nov-17 22:30N 35°35' E 139°48'2 0.3
2014-Nov-17 14:33N 35°34' E 139°50'0 0.1
2014-Nov-17 13:33N 35°34' E 139°50'0 0.0
2014-Nov-17 09:27N 35°34' E 139°50'  

Dump ship's entire track history